createdAt,value
2019-05-16T00:00:46.599Z,7.70
2019-05-16T00:03:15.715Z,7.60
2019-05-16T00:05:53.360Z,7.60
2019-05-16T00:08:14.933Z,7.60
2019-05-16T00:10:43.779Z,7.60
2019-05-16T00:13:12.597Z,7.50
2019-05-16T00:15:41.330Z,7.50
2019-05-16T00:18:10.352Z,7.40
2019-05-16T00:20:39.183Z,7.40
2019-05-16T00:23:08.023Z,7.30
2019-05-16T00:25:38.643Z,7.30
2019-05-16T00:28:08.950Z,7.20
2019-05-16T00:30:39.101Z,7.20
2019-05-16T00:33:08.408Z,7.20
2019-05-16T00:35:38.855Z,7.10
2019-05-16T00:38:08.766Z,7.10
2019-05-16T00:40:38.246Z,7.10
2019-05-16T00:43:08.070Z,7.10
2019-05-16T00:45:38.567Z,7.00
2019-05-16T00:48:09.003Z,7.00
2019-05-16T00:50:39.565Z,6.90
2019-05-16T00:53:09.156Z,6.90
2019-05-16T00:55:59.133Z,6.80
2019-05-16T00:58:30.812Z,6.80
2019-05-16T01:00:59.722Z,6.80
2019-05-16T01:03:29.134Z,6.80
2019-05-16T01:05:58.482Z,6.70
2019-05-16T01:08:28.121Z,6.70
2019-05-16T01:10:58.696Z,6.70
2019-05-16T01:13:27.875Z,6.70
2019-05-16T01:15:57.922Z,6.60
2019-05-16T01:18:28.680Z,6.60
2019-05-16T01:20:58.567Z,6.50
2019-05-16T01:23:28.305Z,6.50
2019-05-16T01:25:58.905Z,6.50
2019-05-16T01:28:28.375Z,6.40
2019-05-16T01:30:58.009Z,6.40
2019-05-16T01:33:28.077Z,6.40
2019-05-16T01:35:58.550Z,6.30
2019-05-16T01:38:28.492Z,6.30
2019-05-16T01:40:58.292Z,6.30
2019-05-16T01:43:28.378Z,6.30
2019-05-16T01:45:57.837Z,6.20
2019-05-16T01:48:28.988Z,6.20
2019-05-16T01:50:58.372Z,6.20
2019-05-16T01:53:27.819Z,6.20
2019-05-16T01:55:57.989Z,6.10
2019-05-16T01:58:28.807Z,6.10
2019-05-16T02:01:11.137Z,6.00
2019-05-16T02:03:28.281Z,6.00
2019-05-16T02:05:58.559Z,5.90
2019-05-16T02:08:28.669Z,5.90
2019-05-16T02:10:58.525Z,5.90
2019-05-16T02:13:28.571Z,5.90
2019-05-16T02:15:59.336Z,5.80
2019-05-16T02:18:31.510Z,5.80
2019-05-16T02:21:01.833Z,5.80
2019-05-16T02:23:30.951Z,5.70
2019-05-16T02:26:00.030Z,5.70
2019-05-16T02:28:33.775Z,5.70
2019-05-16T02:31:01.301Z,5.70
2019-05-16T02:33:51.073Z,5.60
2019-05-16T02:36:21.786Z,5.60
2019-05-16T02:38:51.417Z,5.60
2019-05-16T02:41:21.646Z,5.60
2019-05-16T02:43:50.846Z,5.50
2019-05-16T02:46:21.739Z,5.50
2019-05-16T02:48:51.784Z,5.50
2019-05-16T02:51:21.457Z,5.50
2019-05-16T02:54:11.022Z,5.50
2019-05-16T02:56:41.734Z,5.50
2019-05-16T02:59:11.918Z,5.40
2019-05-16T03:01:41.252Z,5.40
2019-05-16T03:04:11.061Z,5.40
2019-05-16T03:06:41.021Z,5.40
2019-05-16T03:09:11.285Z,5.30
2019-05-16T03:11:42.263Z,5.30
2019-05-16T03:14:12.910Z,5.40
2019-05-16T03:16:42.776Z,5.30
2019-05-16T03:19:13.402Z,5.30
2019-05-16T03:21:43.857Z,5.30
2019-05-16T03:24:12.583Z,5.30
2019-05-16T03:26:41.416Z,5.30
2019-05-16T03:29:11.260Z,5.30
2019-05-16T03:31:44.720Z,5.30
2019-05-16T03:34:15.953Z,5.30
2019-05-16T03:36:43.804Z,5.30
2019-05-16T03:39:11.719Z,5.40
2019-05-16T03:41:41.451Z,5.40
2019-05-16T03:44:11.354Z,5.40
2019-05-16T03:46:41.260Z,5.40
2019-05-16T03:49:11.403Z,5.40
2019-05-16T03:51:41.395Z,5.40
2019-05-16T03:54:12.423Z,5.40
2019-05-16T03:56:41.231Z,5.50
2019-05-16T03:59:10.963Z,5.50
2019-05-16T04:01:41.053Z,5.50
2019-05-16T04:04:11.696Z,5.50
2019-05-16T04:06:41.608Z,5.60
2019-05-16T04:09:12.172Z,5.60
2019-05-16T04:11:42.533Z,5.60
2019-05-16T04:14:12.162Z,5.60
2019-05-16T04:16:41.399Z,5.70
2019-05-16T04:19:11.532Z,5.70
2019-05-16T04:21:42.179Z,5.80
2019-05-16T04:24:12.219Z,5.80
2019-05-16T04:26:41.467Z,5.90
2019-05-16T04:29:11.796Z,5.90
2019-05-16T04:31:41.458Z,5.90
2019-05-16T04:34:11.681Z,6.00
2019-05-16T04:36:41.034Z,6.10
2019-05-16T04:39:11.847Z,6.10
2019-05-16T04:41:40.978Z,6.10
2019-05-16T04:44:11.700Z,6.20
2019-05-16T04:46:41.182Z,6.20
2019-05-16T04:49:11.171Z,6.30
2019-05-16T04:51:41.426Z,6.30
2019-05-16T04:54:11.329Z,6.40
2019-05-16T04:56:41.217Z,6.40
2019-05-16T04:59:16.218Z,6.50
2019-05-16T05:01:42.735Z,6.50
2019-05-16T05:04:15.243Z,6.60
2019-05-16T05:06:42.102Z,6.60
2019-05-16T05:09:11.740Z,6.70
2019-05-16T05:11:41.315Z,6.70
2019-05-16T05:14:10.636Z,6.80
2019-05-16T05:16:41.335Z,6.90
2019-05-16T05:19:10.896Z,7.00
2019-05-16T05:21:40.877Z,7.10
2019-05-16T05:24:10.835Z,7.10
2019-05-16T05:26:41.455Z,7.20
2019-05-16T05:29:10.483Z,7.20
2019-05-16T05:31:44.609Z,7.40
2019-05-16T05:34:10.623Z,7.40
2019-05-16T05:36:40.838Z,7.50
2019-05-16T05:39:14.905Z,7.60
2019-05-16T05:41:40.240Z,7.60
2019-05-16T05:44:10.659Z,7.70
2019-05-16T05:46:40.147Z,7.70
2019-05-16T05:49:10.462Z,7.80
2019-05-16T05:51:40.632Z,7.90
2019-05-16T05:54:10.858Z,8.00
2019-05-16T05:56:40.287Z,8.00
2019-05-16T05:59:11.460Z,8.10
2019-05-16T06:01:40.737Z,8.20
2019-05-16T06:04:10.550Z,8.20
2019-05-16T06:06:42.801Z,8.30
2019-05-16T06:09:24.863Z,8.40
2019-05-16T06:11:40.708Z,8.40
2019-05-16T06:14:09.870Z,8.50
2019-05-16T06:16:40.225Z,8.60
2019-05-16T06:19:11.011Z,8.60
2019-05-16T06:21:44.576Z,8.70
2019-05-16T06:24:10.736Z,8.70
2019-05-16T06:26:39.822Z,8.80
2019-05-16T06:29:10.471Z,8.80
2019-05-16T06:31:40.680Z,8.90
2019-05-16T06:34:15.022Z,8.90
2019-05-16T06:36:40.494Z,9.00
2019-05-16T06:39:11.439Z,9.00
2019-05-16T06:41:39.797Z,9.10
2019-05-16T06:44:10.522Z,9.10
2019-05-16T06:46:54.285Z,9.20
2019-05-16T06:49:10.374Z,9.30
2019-05-16T06:51:39.779Z,9.40
2019-05-16T06:54:10.107Z,9.40
2019-05-16T06:56:40.118Z,9.50
2019-05-16T06:59:10.396Z,9.60
2019-05-16T07:01:40.457Z,9.60
2019-05-16T07:04:10.427Z,9.70
2019-05-16T07:06:55.043Z,9.70
2019-05-16T07:09:10.584Z,9.80
2019-05-16T07:11:39.871Z,9.80
2019-05-16T07:14:10.576Z,9.90
2019-05-16T07:16:40.472Z,9.90
2019-05-16T07:19:10.460Z,10.00
2019-05-16T07:21:39.767Z,10.00
2019-05-16T07:24:10.710Z,10.10
2019-05-16T07:26:40.548Z,10.10
2019-05-16T07:29:10.965Z,10.20
2019-05-16T07:31:40.581Z,10.20
2019-05-16T07:34:10.793Z,10.30
2019-05-16T07:36:40.536Z,10.30
2019-05-16T07:39:10.802Z,10.30
2019-05-16T07:41:40.146Z,10.40
2019-05-16T07:44:10.865Z,10.40
2019-05-16T07:46:40.829Z,10.50
2019-05-16T07:49:11.443Z,10.50
2019-05-16T07:51:40.374Z,10.60
2019-05-16T07:54:10.534Z,10.60
2019-05-16T07:56:40.735Z,10.70
2019-05-16T07:59:10.425Z,10.70
2019-05-16T08:01:39.858Z,10.70
2019-05-16T08:04:10.579Z,10.70
2019-05-16T08:06:40.815Z,10.80
2019-05-16T08:09:12.482Z,10.80
2019-05-16T08:11:40.927Z,10.90
2019-05-16T08:14:10.291Z,10.90
2019-05-16T08:16:40.861Z,11.00
2019-05-16T08:19:10.493Z,11.10
2019-05-16T08:21:41.053Z,11.10
2019-05-16T08:24:14.996Z,11.20
2019-05-16T08:26:43.086Z,11.20
2019-05-16T08:29:13.366Z,11.20
2019-05-16T08:33:21.257Z,11.30
2019-05-16T08:34:12.397Z,11.40
2019-05-16T08:36:41.242Z,11.40
2019-05-16T08:39:11.058Z,11.40
2019-05-16T08:41:42.453Z,11.50
2019-05-16T08:44:12.273Z,11.50
2019-05-16T08:46:42.554Z,11.70
2019-05-16T08:49:12.366Z,11.70
2019-05-16T08:51:42.646Z,11.70
2019-05-16T08:54:13.464Z,11.80
2019-05-16T08:56:44.346Z,11.90
2019-05-16T08:59:13.408Z,11.90
2019-05-16T09:01:50.752Z,12.00
2019-05-16T09:04:13.059Z,12.10
2019-05-16T09:06:42.622Z,12.10
2019-05-16T09:09:27.745Z,12.20
2019-05-16T09:11:45.262Z,12.20
2019-05-16T09:14:12.694Z,12.30
2019-05-16T09:16:41.625Z,12.40
2019-05-16T09:19:10.353Z,12.40
2019-05-16T09:21:39.087Z,12.50
2019-05-16T09:24:08.081Z,12.60
2019-05-16T09:26:38.287Z,12.60
2019-05-16T09:29:08.428Z,12.70
2019-05-16T09:31:38.692Z,12.80
2019-05-16T09:34:08.209Z,12.90
2019-05-16T09:36:37.239Z,13.00
2019-05-16T09:39:08.543Z,13.00
2019-05-16T09:41:49.750Z,13.10
2019-05-16T09:44:08.713Z,13.10
2019-05-16T09:46:37.927Z,13.20
2019-05-16T09:49:16.654Z,13.30
2019-05-16T09:51:37.744Z,13.40
2019-05-16T09:54:07.143Z,13.50
2019-05-16T09:56:37.008Z,13.50
2019-05-16T09:59:06.928Z,13.60
2019-05-16T10:01:37.100Z,13.70
2019-05-16T10:04:06.688Z,13.80
2019-05-16T10:06:37.227Z,13.90
2019-05-16T10:09:07.338Z,14.00
2019-05-16T10:11:41.649Z,14.10
2019-05-16T10:14:07.258Z,14.20
2019-05-16T10:16:36.763Z,14.30
2019-05-16T10:19:07.405Z,14.40
2019-05-16T10:21:37.131Z,14.40
2019-05-16T10:24:07.259Z,14.50
2019-05-16T10:26:37.183Z,14.60
2019-05-16T10:29:10.455Z,14.70
2019-05-16T10:31:45.882Z,14.80
2019-05-16T10:34:26.752Z,14.90
2019-05-16T10:36:57.545Z,15.00
2019-05-16T10:39:26.823Z,15.10
2019-05-16T10:41:57.411Z,15.20
2019-05-16T10:44:28.168Z,15.30
2019-05-16T10:46:56.809Z,15.40
2019-05-16T10:49:34.260Z,15.50
2019-05-16T10:51:57.719Z,15.50
2019-05-16T10:54:27.598Z,15.60
2019-05-16T10:56:57.673Z,15.70
2019-05-16T10:59:54.525Z,15.80
2019-05-16T11:01:59.628Z,15.80
2019-05-16T11:04:37.659Z,16.00
2019-05-16T11:06:58.216Z,16.10
2019-05-16T11:09:55.704Z,16.30
2019-05-16T11:12:20.320Z,16.30
2019-05-16T11:14:47.882Z,16.40
2019-05-16T11:17:19.060Z,16.50
2019-05-16T11:19:47.413Z,16.60
2019-05-16T11:22:16.136Z,16.60
2019-05-16T11:24:46.970Z,16.60
2019-05-16T11:27:15.512Z,16.60
2019-05-16T11:29:44.361Z,16.60
2019-05-16T11:32:13.152Z,16.70
2019-05-16T11:34:42.150Z,16.80
2019-05-16T11:37:11.368Z,16.90
2019-05-16T11:39:40.165Z,17.00
2019-05-16T11:42:09.158Z,17.10
2019-05-16T11:44:38.238Z,17.10
2019-05-16T11:47:08.313Z,17.10
2019-05-16T11:49:37.535Z,17.10
2019-05-16T11:52:07.395Z,17.20
2019-05-16T11:54:37.360Z,17.30
2019-05-16T11:57:07.194Z,17.30
2019-05-16T11:59:37.311Z,17.30
2019-05-16T12:02:06.635Z,17.30
2019-05-16T12:04:37.502Z,17.40
2019-05-16T12:07:07.634Z,17.50
2019-05-16T12:09:46.575Z,17.60
2019-05-16T12:12:08.776Z,17.80
2019-05-16T12:14:38.080Z,17.90
2019-05-16T12:17:07.524Z,18.10
2019-05-16T12:19:43.574Z,18.10
2019-05-16T12:22:07.243Z,18.10
2019-05-16T12:24:38.748Z,18.10
2019-05-16T12:27:08.265Z,18.10
2019-05-16T12:29:37.508Z,18.20
2019-05-16T12:32:07.674Z,18.30
2019-05-16T12:34:36.935Z,18.30
2019-05-16T12:37:07.409Z,18.40
2019-05-16T12:39:37.835Z,18.40
2019-05-16T12:42:08.412Z,18.40
2019-05-16T12:44:37.551Z,18.40
2019-05-16T12:47:07.676Z,18.40
2019-05-16T12:49:36.867Z,18.40
2019-05-16T12:52:06.728Z,18.40
2019-05-16T12:54:36.965Z,18.30
2019-05-16T12:57:06.384Z,18.40
2019-05-16T12:59:36.810Z,18.40
2019-05-16T13:02:07.231Z,18.40
2019-05-16T13:04:37.740Z,18.50
2019-05-16T13:07:09.334Z,18.60
2019-05-16T13:09:37.620Z,18.60
2019-05-16T13:12:07.010Z,18.60
2019-05-16T13:14:40.157Z,18.70
2019-05-16T13:17:07.225Z,18.70
2019-05-16T13:19:43.273Z,18.70
2019-05-16T13:22:07.456Z,18.80
2019-05-16T13:24:38.410Z,18.80
2019-05-16T13:27:08.444Z,18.90
2019-05-16T13:29:37.565Z,19.00
2019-05-16T13:32:07.680Z,19.00
2019-05-16T13:34:38.060Z,19.10
2019-05-16T13:37:07.644Z,19.10
2019-05-16T13:39:36.557Z,19.00
2019-05-16T13:42:08.015Z,19.00
2019-05-16T13:44:37.687Z,19.10
2019-05-16T13:47:07.665Z,19.10
2019-05-16T13:49:38.412Z,19.20
2019-05-16T13:52:07.371Z,19.30
2019-05-16T13:54:36.344Z,19.30
2019-05-16T13:57:06.996Z,19.30
2019-05-16T13:59:37.343Z,19.40
2019-05-16T14:02:08.049Z,19.40
2019-05-16T14:04:37.387Z,19.40
2019-05-16T14:07:07.618Z,19.50
2019-05-16T14:09:37.803Z,19.50
2019-05-16T14:12:07.236Z,19.50
2019-05-16T14:14:41.531Z,19.60
2019-05-16T14:17:14.175Z,19.60
2019-05-16T14:19:37.506Z,19.50
2019-05-16T14:22:07.674Z,19.50
2019-05-16T14:24:37.201Z,19.50
2019-05-16T14:27:06.762Z,19.50
2019-05-16T14:29:37.756Z,19.50
2019-05-16T14:32:10.080Z,19.50
2019-05-16T14:34:38.466Z,19.50
2019-05-16T14:37:07.835Z,19.60
2019-05-16T14:39:38.857Z,19.60
2019-05-16T14:42:07.175Z,19.60
2019-05-16T14:44:58.270Z,19.60
2019-05-16T14:47:07.057Z,19.70
2019-05-16T14:49:37.389Z,19.70
2019-05-16T14:52:06.817Z,19.60
2019-05-16T14:54:37.703Z,19.60
2019-05-16T14:57:06.429Z,19.60
2019-05-16T14:59:36.464Z,19.50
2019-05-16T15:02:07.131Z,19.40
2019-05-16T15:04:37.575Z,19.40
2019-05-16T15:07:06.998Z,19.40
2019-05-16T15:09:38.062Z,19.40
2019-05-16T15:12:07.254Z,19.40
2019-05-16T15:14:37.549Z,19.40
2019-05-16T15:17:07.135Z,19.40
2019-05-16T15:19:36.161Z,19.40
2019-05-16T15:22:07.637Z,19.40
2019-05-16T15:24:37.096Z,19.40
2019-05-16T15:27:08.312Z,19.50
2019-05-16T15:29:37.745Z,19.40
2019-05-16T15:32:07.269Z,19.40
2019-05-16T15:34:38.063Z,19.30
2019-05-16T15:37:07.868Z,19.40
2019-05-16T15:39:37.520Z,19.30
2019-05-16T15:42:08.257Z,19.30
2019-05-16T15:44:37.009Z,19.20
2019-05-16T15:47:08.141Z,19.10
2019-05-16T15:49:37.736Z,19.10
2019-05-16T15:52:07.331Z,19.10
2019-05-16T15:54:40.252Z,19.10
2019-05-16T15:57:09.019Z,19.00
2019-05-16T15:59:37.917Z,19.00
2019-05-16T16:02:07.860Z,18.90
2019-05-16T16:04:37.358Z,18.90
2019-05-16T16:07:07.620Z,18.90
2019-05-16T16:09:37.865Z,18.80
2019-05-16T16:12:10.574Z,18.80
2019-05-16T16:14:37.817Z,18.80
2019-05-16T16:17:07.585Z,18.80
2019-05-16T16:19:37.201Z,18.70
2019-05-16T16:22:07.678Z,18.70
2019-05-16T16:24:36.760Z,18.70
2019-05-16T16:27:07.348Z,18.70
2019-05-16T16:29:36.727Z,18.60
2019-05-16T16:32:06.504Z,18.60
2019-05-16T16:34:36.783Z,18.60
2019-05-16T16:37:07.546Z,18.60
2019-05-16T16:39:37.714Z,18.60
2019-05-16T16:42:07.597Z,18.60
2019-05-16T16:44:36.670Z,18.60
2019-05-16T16:47:06.744Z,18.60
2019-05-16T16:49:39.886Z,18.50
2019-05-16T16:52:07.589Z,18.50
2019-05-16T16:54:37.020Z,18.50
2019-05-16T16:57:07.791Z,18.40
2019-05-16T16:59:37.190Z,18.40
2019-05-16T17:02:06.191Z,18.40
2019-05-16T17:04:38.340Z,18.30
2019-05-16T17:07:05.563Z,18.30
2019-05-16T17:09:34.316Z,18.20
2019-05-16T17:12:03.332Z,18.00
2019-05-16T17:14:32.411Z,17.90
2019-05-16T17:17:01.240Z,17.90
2019-05-16T17:19:29.977Z,17.80
2019-05-16T17:22:11.927Z,17.60
2019-05-16T17:24:30.098Z,17.50
2019-05-16T17:26:59.164Z,17.40
2019-05-16T17:29:28.149Z,17.40
2019-05-16T17:32:06.051Z,17.30
2019-05-16T17:34:27.755Z,17.20
2019-05-16T17:36:57.158Z,17.10
2019-05-16T17:39:27.452Z,17.00
2019-05-16T17:41:57.990Z,16.90
2019-05-16T17:44:27.265Z,16.80
2019-05-16T17:46:57.454Z,16.80
2019-05-16T17:49:26.793Z,16.70
2019-05-16T17:51:55.608Z,16.60
2019-05-16T17:54:26.600Z,16.50
2019-05-16T17:56:56.761Z,16.50
2019-05-16T17:59:27.534Z,16.40
2019-05-16T18:01:56.954Z,16.30
2019-05-16T18:04:26.786Z,16.20
2019-05-16T18:06:57.668Z,16.20
2019-05-16T18:09:27.886Z,16.10
2019-05-16T18:11:57.365Z,16.00
2019-05-16T18:14:26.564Z,15.90
2019-05-16T18:16:59.652Z,15.90
2019-05-16T18:19:26.586Z,15.80
2019-05-16T18:22:06.529Z,15.80
2019-05-16T18:24:36.911Z,15.70
2019-05-16T18:27:06.666Z,15.70
2019-05-16T18:29:36.532Z,15.60
2019-05-16T18:32:06.983Z,15.60
2019-05-16T18:34:37.605Z,15.50
2019-05-16T18:37:06.932Z,15.50
2019-05-16T18:39:36.880Z,15.50
2019-05-16T18:42:06.164Z,15.40
2019-05-16T18:44:36.628Z,15.40
2019-05-16T18:47:10.991Z,15.30
2019-05-16T18:49:36.818Z,15.20
2019-05-16T18:52:06.569Z,15.20
2019-05-16T18:54:57.448Z,15.10
2019-05-16T18:57:26.910Z,15.00
2019-05-16T18:59:56.816Z,14.90
2019-05-16T19:02:27.251Z,14.90
2019-05-16T19:04:57.747Z,14.80
2019-05-16T19:07:27.393Z,14.80
2019-05-16T19:09:56.337Z,14.70
2019-05-16T19:12:26.310Z,14.60
2019-05-16T19:14:57.117Z,14.60
2019-05-16T19:17:27.564Z,14.50
2019-05-16T19:19:56.984Z,14.50
2019-05-16T19:22:26.450Z,14.40
2019-05-16T19:24:57.414Z,14.40
2019-05-16T19:27:26.279Z,14.30
2019-05-16T19:29:56.927Z,14.30
2019-05-16T19:32:25.766Z,14.20
2019-05-16T19:34:54.608Z,14.20
2019-05-16T19:37:23.391Z,14.10
2019-05-16T19:39:52.186Z,14.00
2019-05-16T19:42:21.124Z,14.00
2019-05-16T19:44:49.944Z,13.90
2019-05-16T19:47:18.682Z,13.80
2019-05-16T19:49:47.620Z,13.70
2019-05-16T19:52:16.540Z,13.60
2019-05-16T19:54:47.088Z,13.60
2019-05-16T19:57:17.421Z,13.50
2019-05-16T19:59:47.273Z,13.40
2019-05-16T20:02:16.638Z,13.30
2019-05-16T20:04:47.108Z,13.20
2019-05-16T20:07:16.793Z,13.20
2019-05-16T20:09:46.927Z,13.10
2019-05-16T20:12:16.905Z,13.00
2019-05-16T20:14:47.264Z,12.90
2019-05-16T20:17:19.129Z,12.80
2019-05-16T20:19:47.049Z,12.70
2019-05-16T20:22:16.669Z,12.60
2019-05-16T20:24:46.882Z,12.60
2019-05-16T20:27:17.037Z,12.50
2019-05-16T20:29:47.437Z,12.40
2019-05-16T20:32:16.868Z,12.40
2019-05-16T20:34:46.817Z,12.30
2019-05-16T20:37:17.375Z,12.30
2019-05-16T20:39:46.643Z,12.20
2019-05-16T20:42:17.069Z,12.10
2019-05-16T20:44:46.358Z,12.10
2019-05-16T20:47:16.639Z,12.00
2019-05-16T20:49:47.758Z,12.00
2019-05-16T20:52:17.459Z,11.90
2019-05-16T20:54:49.561Z,11.80
2019-05-16T20:57:17.335Z,11.80
2019-05-16T20:59:46.363Z,11.70
2019-05-16T21:02:16.616Z,11.70
2019-05-16T21:04:46.483Z,11.60
2019-05-16T21:07:17.110Z,11.60
2019-05-16T21:09:45.990Z,11.50
2019-05-16T21:12:17.122Z,11.40
2019-05-16T21:14:45.127Z,11.40
2019-05-16T21:17:14.038Z,11.30
2019-05-16T21:19:42.757Z,11.30
2019-05-16T21:22:11.547Z,11.20
2019-05-16T21:24:40.485Z,11.10
2019-05-16T21:27:10.492Z,11.10
2019-05-16T21:29:39.228Z,11.00
2019-05-16T21:32:08.146Z,11.00
2019-05-16T21:34:36.905Z,10.90
2019-05-16T21:37:14.434Z,10.90
2019-05-16T21:39:36.966Z,10.80
2019-05-16T21:42:07.421Z,10.70
2019-05-16T21:44:37.352Z,10.70
2019-05-16T21:47:06.499Z,10.60
2019-05-16T21:49:37.024Z,10.50
2019-05-16T21:52:05.613Z,10.50
2019-05-16T21:54:36.544Z,10.40
2019-05-16T21:57:04.872Z,10.30
2019-05-16T21:59:33.699Z,10.30
2019-05-16T22:02:21.880Z,10.20
2019-05-16T22:04:50.735Z,10.20
2019-05-16T22:07:32.631Z,10.10
2019-05-16T22:09:50.330Z,10.00
2019-05-16T22:12:19.078Z,10.00
2019-05-16T22:14:52.592Z,9.90
2019-05-16T22:17:21.350Z,9.90
2019-05-16T22:19:50.233Z,9.80
2019-05-16T22:22:19.260Z,9.80
2019-05-16T22:24:49.308Z,9.70
2019-05-16T22:27:18.388Z,9.70
2019-05-16T22:29:47.382Z,9.60
2019-05-16T22:32:16.513Z,9.60
2019-05-16T22:34:47.481Z,9.50
2019-05-16T22:37:17.158Z,9.50
2019-05-16T22:39:46.137Z,9.50
2019-05-16T22:42:17.471Z,9.40
2019-05-16T22:44:46.651Z,9.30
2019-05-16T22:47:17.189Z,9.30
2019-05-16T22:49:47.538Z,9.20
2019-05-16T22:52:17.170Z,9.20
2019-05-16T22:54:47.589Z,9.20
2019-05-16T22:57:17.631Z,9.10
2019-05-16T22:59:46.573Z,9.10
2019-05-16T23:02:16.870Z,9.00
2019-05-16T23:04:47.523Z,9.00
2019-05-16T23:07:16.515Z,8.90
2019-05-16T23:09:47.266Z,8.80
2019-05-16T23:12:17.393Z,8.80
2019-05-16T23:14:46.343Z,8.80
2019-05-16T23:17:17.165Z,8.70
2019-05-16T23:19:47.406Z,8.70
2019-05-16T23:22:16.743Z,8.60
2019-05-16T23:24:46.326Z,8.60
2019-05-16T23:27:15.502Z,8.50
2019-05-16T23:29:44.320Z,8.50
2019-05-16T23:32:13.138Z,8.40
2019-05-16T23:34:42.063Z,8.40
2019-05-16T23:37:11.181Z,8.40
2019-05-16T23:39:39.923Z,8.30
2019-05-16T23:42:08.845Z,8.20
2019-05-16T23:44:37.656Z,8.20
2019-05-16T23:47:07.094Z,8.10
2019-05-16T23:49:36.648Z,8.10
2019-05-16T23:52:07.509Z,8.00
2019-05-16T23:54:36.851Z,8.00
2019-05-16T23:57:06.595Z,7.90
2019-05-16T23:59:36.845Z,7.90
